ETH318 HAAB-HKJK
Flight info
| Callsign | ETH318 |
|---|---|
| Flight time | N/A |
| Altitude | 40000 |
| Route | SHALA1B SHALA UM308 RUDOL/N0474F390 UM308 LOTAS LOTAS3A |
| Aircraft | B77W/H-SDE1E3FGHIJ2J3J4J5J7LM1OP1P2P3RVWXYZ/HB1D1 |
Departure
| Time | 2026-04-30 21:29 |
|---|---|
| Airport | Addis Ababa Bole International Airport (HAAB) |
Arrival
| Time | N/A |
|---|---|
| Airport | Jomo Kenyatta International Airport (HKJK) |
| Time | Latitude | Longitude | Altitude | Speed | Heading |
|---|---|---|---|---|---|
| 2026-04-30 20:35 | 8.98272 | 38.79782 | 7637 ft | 0 kts | 344° |
| 2026-04-30 21:17 | 8.98264 | 38.79784 | 7637 ft | 2 kts | 346° |
| 2026-04-30 21:17 | 8.98249 | 38.79788 | 7638 ft | 2 kts | 347° |
| 2026-04-30 21:17 | 8.98234 | 38.79792 | 7638 ft | 2 kts | 346° |
| 2026-04-30 21:17 | 8.98221 | 38.79795 | 7639 ft | 1 kts | 346° |
| 2026-04-30 21:18 | 8.98211 | 38.79798 | 7639 ft | 1 kts | 318° |
| 2026-04-30 21:18 | 8.98205 | 38.79810 | 7639 ft | 1 kts | 263° |
| 2026-04-30 21:18 | 8.98207 | 38.79818 | 7639 ft | 0 kts | 254° |
| 2026-04-30 21:21 | 8.98206 | 38.79815 | 7639 ft | 1 kts | 254° |
| 2026-04-30 21:21 | 8.98158 | 38.79723 | 7641 ft | 12 kts | 238° |
| 2026-04-30 21:22 | 8.98124 | 38.79617 | 7640 ft | 18 kts | 255° |
| 2026-04-30 21:22 | 8.98020 | 38.79264 | 7639 ft | 14 kts | 253° |
| 2026-04-30 21:23 | 8.97995 | 38.79180 | 7640 ft | 11 kts | 253° |
| 2026-04-30 21:23 | 8.97974 | 38.79108 | 7640 ft | 10 kts | 253° |
| 2026-04-30 21:23 | 8.97937 | 38.78981 | 7641 ft | 8 kts | 253° |
| 2026-04-30 21:24 | 8.97920 | 38.78924 | 7642 ft | 8 kts | 253° |
| 2026-04-30 21:24 | 8.97902 | 38.78859 | 7641 ft | 11 kts | 254° |
| 2026-04-30 21:24 | 8.97878 | 38.78776 | 7642 ft | 13 kts | 253° |
| 2026-04-30 21:24 | 8.97812 | 38.78750 | 7640 ft | 12 kts | 163° |
| 2026-04-30 21:25 | 8.97641 | 38.78800 | 7636 ft | 13 kts | 164° |
| 2026-04-30 21:25 | 8.97559 | 38.78786 | 7634 ft | 13 kts | 245° |
| 2026-04-30 21:25 | 8.97531 | 38.78692 | 7629 ft | 15 kts | 254° |
| 2026-04-30 21:26 | 8.97465 | 38.78462 | 7618 ft | 19 kts | 254° |
| 2026-04-30 21:26 | 8.97423 | 38.78318 | 7605 ft | 23 kts | 253° |
| 2026-04-30 21:27 | 8.97274 | 38.78342 | 7596 ft | 13 kts | 141° |
| 2026-04-30 21:27 | 8.97250 | 38.78397 | 7600 ft | 4 kts | 78° |
| 2026-04-30 21:27 | 8.97251 | 38.78399 | 7600 ft | 0 kts | 77° |
| 2026-04-30 21:28 | 8.97255 | 38.78418 | 7602 ft | 13 kts | 77° |
| 2026-04-30 21:28 | 8.97550 | 38.79433 | 7632 ft | 136 kts | 73° |
| 2026-04-30 21:29 | 8.97873 | 38.80541 | 7624 ft | 191 kts | 73° |
| 2026-04-30 21:29 | 8.99002 | 38.84689 | 9553 ft | 212 kts | 72° |
| 2026-04-30 21:30 | 8.99908 | 38.87818 | 10249 ft | 247 kts | 72° |
| 2026-04-30 21:31 | 8.99518 | 38.92852 | 12254 ft | 267 kts | 128° |
| 2026-04-30 21:31 | 8.96166 | 38.94315 | 13626 ft | 278 kts | 185° |
| 2026-04-30 21:32 | 8.92954 | 38.92285 | 14723 ft | 290 kts | 246° |
| 2026-04-30 21:32 | 8.92163 | 38.90434 | 15521 ft | 286 kts | 251° |
| 2026-04-30 21:32 | 8.91467 | 38.88540 | 16239 ft | 289 kts | 251° |
| 2026-04-30 21:32 | 8.90761 | 38.86620 | 16870 ft | 295 kts | 250° |
| 2026-04-30 21:33 | 8.89714 | 38.84810 | 17306 ft | 309 kts | 226° |
| 2026-04-30 21:33 | 8.85895 | 38.82813 | 18557 ft | 317 kts | 196° |
| 2026-04-30 21:33 | 8.83733 | 38.82125 | 18934 ft | 334 kts | 197° |
| 2026-04-30 21:34 | 8.81454 | 38.81378 | 19259 ft | 353 kts | 197° |
| 2026-04-30 21:34 | 8.76567 | 38.79731 | 20002 ft | 388 kts | 198° |
| 2026-04-30 21:34 | 8.74041 | 38.78876 | 20353 ft | 404 kts | 198° |
| 2026-04-30 21:35 | 8.71281 | 38.77940 | 20710 ft | 422 kts | 198° |
| 2026-04-30 21:35 | 8.68422 | 38.76971 | 21074 ft | 438 kts | 198° |
| 2026-04-30 21:35 | 8.65451 | 38.75964 | 21618 ft | 448 kts | 198° |
| 2026-04-30 21:35 | 8.62500 | 38.74965 | 22346 ft | 451 kts | 198° |
| 2026-04-30 21:36 | 8.59514 | 38.74030 | 23148 ft | 453 kts | 195° |
| 2026-04-30 21:36 | 8.56466 | 38.73140 | 23857 ft | 457 kts | 195° |
| 2026-04-30 21:37 | 8.47144 | 38.70434 | 25925 ft | 469 kts | 195° |
| 2026-04-30 21:37 | 8.44023 | 38.69529 | 26582 ft | 474 kts | 195° |
| 2026-04-30 21:37 | 8.40827 | 38.68601 | 27252 ft | 478 kts | 195° |
| 2026-04-30 21:37 | 8.37615 | 38.67669 | 27909 ft | 482 kts | 195° |
| 2026-04-30 21:38 | 8.34356 | 38.66724 | 28581 ft | 485 kts | 195° |
| 2026-04-30 21:38 | 8.31111 | 38.65783 | 29270 ft | 488 kts | 195° |
| 2026-04-30 21:38 | 8.27826 | 38.64831 | 30002 ft | 489 kts | 195° |
| 2026-04-30 21:38 | 8.24596 | 38.63894 | 30944 ft | 485 kts | 195° |
| 2026-04-30 21:39 | 8.21389 | 38.62964 | 32018 ft | 477 kts | 195° |
| 2026-04-30 21:39 | 8.18210 | 38.62043 | 33063 ft | 470 kts | 195° |
| 2026-04-30 21:39 | 8.15073 | 38.61133 | 33933 ft | 467 kts | 195° |
| 2026-04-30 21:39 | 8.11949 | 38.60228 | 34624 ft | 467 kts | 195° |
| 2026-04-30 21:40 | 8.08822 | 38.59322 | 35307 ft | 466 kts | 195° |
| 2026-04-30 21:40 | 8.05724 | 38.58425 | 35987 ft | 465 kts | 195° |
| 2026-04-30 21:40 | 8.02516 | 38.57496 | 36401 ft | 468 kts | 195° |
| 2026-04-30 21:40 | 7.99381 | 38.56588 | 36401 ft | 467 kts | 195° |
| 2026-04-30 21:41 | 7.93134 | 38.54780 | 36400 ft | 464 kts | 195° |
| 2026-04-30 21:41 | 7.86908 | 38.52978 | 36392 ft | 463 kts | 195° |
| 2026-04-30 21:42 | 7.80682 | 38.51177 | 36386 ft | 464 kts | 195° |
| 2026-04-30 21:42 | 7.74468 | 38.49379 | 36386 ft | 464 kts | 195° |
| 2026-04-30 21:43 | 7.68239 | 38.47579 | 36385 ft | 464 kts | 195° |
| 2026-04-30 21:43 | 7.62010 | 38.45778 | 36380 ft | 465 kts | 195° |
| 2026-04-30 21:44 | 7.55748 | 38.43969 | 36373 ft | 465 kts | 195° |
| 2026-04-30 21:44 | 7.49514 | 38.42168 | 36368 ft | 465 kts | 195° |
| 2026-04-30 21:45 | 7.43283 | 38.40369 | 36368 ft | 465 kts | 195° |
| 2026-04-30 21:45 | 7.37035 | 38.38565 | 36368 ft | 465 kts | 195° |
| 2026-04-30 21:46 | 7.30770 | 38.36757 | 36378 ft | 465 kts | 195° |
| 2026-04-30 21:46 | 7.24538 | 38.34959 | 36382 ft | 465 kts | 195° |
| 2026-04-30 21:47 | 7.18283 | 38.33155 | 36380 ft | 466 kts | 195° |
| 2026-04-30 21:47 | 7.12003 | 38.31344 | 36371 ft | 466 kts | 195° |
| 2026-04-30 21:48 | 7.05761 | 38.29544 | 36372 ft | 466 kts | 195° |
| 2026-04-30 21:48 | 6.99492 | 38.27738 | 36355 ft | 467 kts | 195° |
| 2026-04-30 21:49 | 6.93196 | 38.25924 | 36351 ft | 467 kts | 195° |
| 2026-04-30 21:49 | 6.86946 | 38.24124 | 36350 ft | 467 kts | 194° |
| 2026-04-30 21:50 | 6.80656 | 38.22312 | 36332 ft | 468 kts | 194° |
| 2026-04-30 21:50 | 6.74368 | 38.20502 | 36332 ft | 468 kts | 194° |
| 2026-04-30 21:51 | 6.68090 | 38.18695 | 36311 ft | 469 kts | 194° |
| 2026-04-30 21:51 | 6.61777 | 38.16879 | 36293 ft | 469 kts | 194° |
| 2026-04-30 21:52 | 6.55457 | 38.15061 | 36271 ft | 469 kts | 194° |
| 2026-04-30 21:52 | 6.49190 | 38.13259 | 36266 ft | 470 kts | 194° |
| 2026-04-30 21:53 | 6.42862 | 38.11440 | 36269 ft | 471 kts | 194° |
| 2026-04-30 21:53 | 6.36532 | 38.09620 | 36276 ft | 471 kts | 194° |
| 2026-04-30 21:54 | 6.30187 | 38.07797 | 36275 ft | 471 kts | 194° |
| 2026-04-30 21:54 | 6.23824 | 38.05969 | 36279 ft | 472 kts | 194° |
| 2026-04-30 21:55 | 6.17500 | 38.04153 | 36269 ft | 472 kts | 194° |
| 2026-04-30 21:55 | 6.11168 | 38.02335 | 36255 ft | 473 kts | 194° |
| 2026-04-30 21:56 | 6.04808 | 38.00509 | 36232 ft | 474 kts | 194° |
| 2026-04-30 21:56 | 5.98422 | 37.98677 | 36215 ft | 475 kts | 194° |
| 2026-04-30 21:57 | 5.92045 | 37.96847 | 36214 ft | 474 kts | 194° |
| 2026-04-30 21:57 | 5.85665 | 37.95017 | 36218 ft | 476 kts | 194° |
| 2026-04-30 21:58 | 5.79268 | 37.93182 | 36226 ft | 475 kts | 194° |
| 2026-04-30 21:58 | 5.72885 | 37.91352 | 36236 ft | 475 kts | 194° |
| 2026-04-30 21:59 | 5.66482 | 37.89517 | 36247 ft | 476 kts | 194° |
| 2026-04-30 22:00 | 5.56873 | 37.86763 | 36252 ft | 480 kts | 194° |
| 2026-04-30 22:00 | 5.47208 | 37.83995 | 36232 ft | 479 kts | 194° |
| 2026-04-30 22:01 | 5.40795 | 37.82158 | 36212 ft | 480 kts | 194° |
| 2026-04-30 22:01 | 5.34323 | 37.80306 | 36194 ft | 481 kts | 194° |
| 2026-04-30 22:02 | 5.27885 | 37.78463 | 36181 ft | 481 kts | 194° |
| 2026-04-30 22:02 | 5.21364 | 37.76597 | 36179 ft | 483 kts | 195° |
| 2026-04-30 22:03 | 5.14866 | 37.74737 | 36176 ft | 483 kts | 195° |
| 2026-04-30 22:03 | 5.08365 | 37.72877 | 36168 ft | 482 kts | 195° |
| 2026-04-30 22:04 | 5.01853 | 37.71015 | 36177 ft | 484 kts | 195° |
| 2026-04-30 22:05 | 4.92088 | 37.68222 | 36173 ft | 483 kts | 195° |
| 2026-04-30 22:05 | 4.85584 | 37.66363 | 36174 ft | 483 kts | 195° |
| 2026-04-30 22:06 | 4.79127 | 37.64517 | 36164 ft | 483 kts | 195° |
| 2026-04-30 22:06 | 4.69362 | 37.61727 | 36152 ft | 484 kts | 195° |
| 2026-04-30 22:07 | 4.62838 | 37.59863 | 36135 ft | 483 kts | 195° |
| 2026-04-30 22:07 | 4.56366 | 37.58015 | 36135 ft | 483 kts | 195° |
| 2026-04-30 22:08 | 4.49911 | 37.56171 | 36126 ft | 483 kts | 195° |
| 2026-04-30 22:08 | 4.43395 | 37.54311 | 36108 ft | 484 kts | 195° |
| 2026-04-30 22:09 | 4.36859 | 37.52445 | 36102 ft | 484 kts | 195° |
| 2026-04-30 22:09 | 4.30355 | 37.50589 | 36096 ft | 485 kts | 195° |
| 2026-04-30 22:10 | 4.23849 | 37.48732 | 36080 ft | 484 kts | 195° |
| 2026-04-30 22:10 | 4.17326 | 37.46871 | 36065 ft | 485 kts | 195° |
| 2026-04-30 22:11 | 4.07525 | 37.44075 | 36056 ft | 486 kts | 195° |
| 2026-04-30 22:12 | 4.01000 | 37.42214 | 36046 ft | 486 kts | 195° |
| 2026-04-30 22:12 | 3.94456 | 37.40305 | 36043 ft | 485 kts | 195° |
| 2026-04-30 22:13 | 3.87983 | 37.38387 | 36032 ft | 485 kts | 195° |
| 2026-04-30 22:13 | 3.81423 | 37.36445 | 36019 ft | 485 kts | 195° |
| 2026-04-30 22:14 | 3.74911 | 37.34520 | 36007 ft | 486 kts | 195° |
| 2026-04-30 22:14 | 3.68426 | 37.32603 | 36002 ft | 485 kts | 195° |
| 2026-04-30 22:15 | 3.61918 | 37.30680 | 35993 ft | 486 kts | 195° |
| 2026-04-30 22:15 | 3.55374 | 37.28747 | 35988 ft | 486 kts | 195° |
| 2026-04-30 22:16 | 3.48885 | 37.26831 | 35977 ft | 485 kts | 195° |
| 2026-04-30 22:17 | 3.35846 | 37.22982 | 35973 ft | 486 kts | 195° |
| 2026-04-30 22:17 | 3.26084 | 37.20100 | 35971 ft | 485 kts | 195° |
| 2026-04-30 22:18 | 3.16319 | 37.17219 | 35971 ft | 486 kts | 195° |
| 2026-04-30 22:19 | 3.06564 | 37.14341 | 35970 ft | 486 kts | 195° |
| 2026-04-30 22:20 | 2.96810 | 37.11464 | 35977 ft | 486 kts | 195° |
| 2026-04-30 22:20 | 2.87006 | 37.08573 | 35988 ft | 486 kts | 195° |
| 2026-04-30 22:21 | 2.80445 | 37.06638 | 36005 ft | 487 kts | 195° |
| 2026-04-30 22:21 | 2.73980 | 37.04732 | 36022 ft | 486 kts | 196° |
| 2026-04-30 22:22 | 2.67511 | 37.02825 | 36034 ft | 486 kts | 196° |
| 2026-04-30 22:22 | 2.60990 | 37.00903 | 36040 ft | 485 kts | 196° |
| 2026-04-30 22:23 | 2.54483 | 36.98985 | 36043 ft | 486 kts | 196° |
| 2026-04-30 22:23 | 2.47990 | 36.97072 | 36047 ft | 486 kts | 196° |
| 2026-04-30 22:24 | 2.41462 | 36.95148 | 36056 ft | 485 kts | 196° |
| 2026-04-30 22:24 | 2.34988 | 36.93241 | 36071 ft | 485 kts | 196° |
| 2026-04-30 22:25 | 2.28546 | 36.91343 | 36088 ft | 484 kts | 196° |
| 2026-04-30 22:25 | 2.22048 | 36.89429 | 36106 ft | 484 kts | 197° |
| 2026-04-30 22:26 | 2.12338 | 36.86568 | 36117 ft | 485 kts | 197° |
| 2026-04-30 22:27 | 2.05803 | 36.84644 | 36120 ft | 483 kts | 197° |
| 2026-04-30 22:27 | 1.96085 | 36.81782 | 36136 ft | 483 kts | 197° |
| 2026-04-30 22:28 | 1.86396 | 36.78929 | 36139 ft | 483 kts | 197° |
| 2026-04-30 22:29 | 1.73388 | 36.75099 | 36148 ft | 482 kts | 197° |
| 2026-04-30 22:31 | 1.50711 | 36.68424 | 36165 ft | 482 kts | 197° |
| 2026-04-30 22:32 | 1.34564 | 36.63672 | 36181 ft | 483 kts | 197° |
| 2026-04-30 22:33 | 1.18398 | 36.58915 | 36206 ft | 482 kts | 196° |
| 2026-04-30 22:35 | 1.02204 | 36.54150 | 36218 ft | 482 kts | 196° |
| 2026-04-30 22:36 | 0.88845 | 36.52665 | 36236 ft | 482 kts | 184° |
| 2026-04-30 22:36 | 0.85466 | 36.52438 | 36244 ft | 481 kts | 184° |
| 2026-04-30 22:37 | 0.72023 | 36.51527 | 36260 ft | 482 kts | 184° |
| 2026-04-30 22:38 | 0.58527 | 36.50608 | 36277 ft | 481 kts | 184° |
| 2026-04-30 22:39 | 0.48437 | 36.49921 | 36280 ft | 481 kts | 184° |
| 2026-04-30 22:40 | 0.28292 | 36.48547 | 36273 ft | 481 kts | 184° |
| 2026-04-30 22:41 | 0.11550 | 36.47404 | 36309 ft | 482 kts | 184° |
| 2026-04-30 22:43 | -0.08627 | 36.46028 | 36350 ft | 480 kts | 184° |
| 2026-04-30 22:43 | -0.15233 | 36.45578 | 34998 ft | 479 kts | 184° |
| 2026-04-30 22:44 | -0.21926 | 36.45121 | 33356 ft | 480 kts | 184° |
| 2026-04-30 22:45 | -0.35256 | 36.44212 | 30522 ft | 475 kts | 184° |
| 2026-04-30 22:45 | -0.41814 | 36.43764 | 29518 ft | 464 kts | 183° |
| 2026-04-30 22:46 | -0.48213 | 36.43327 | 28469 ft | 456 kts | 183° |
| 2026-04-30 22:47 | -0.60692 | 36.42476 | 26360 ft | 443 kts | 183° |
| 2026-04-30 22:47 | -0.66812 | 36.42059 | 25300 ft | 437 kts | 184° |
| 2026-04-30 22:48 | -0.72845 | 36.41647 | 24224 ft | 432 kts | 184° |
| 2026-04-30 22:49 | -0.81783 | 36.41038 | 22655 ft | 424 kts | 184° |
| 2026-04-30 22:49 | -0.90628 | 36.40434 | 21020 ft | 421 kts | 184° |
| 2026-04-30 22:50 | -1.02342 | 36.39635 | 18515 ft | 422 kts | 184° |
| 2026-04-30 22:51 | -1.08180 | 36.39236 | 17385 ft | 416 kts | 184° |
| 2026-04-30 22:51 | -1.13925 | 36.38844 | 16246 ft | 411 kts | 184° |
| 2026-04-30 22:52 | -1.16771 | 36.38829 | 15659 ft | 404 kts | 174° |
| 2026-04-30 22:52 | -1.21874 | 36.40200 | 15241 ft | 356 kts | 154° |
| 2026-04-30 22:53 | -1.25826 | 36.42829 | 14898 ft | 334 kts | 136° |
| 2026-04-30 22:53 | -1.28786 | 36.46397 | 13962 ft | 335 kts | 122° |
| 2026-04-30 22:53 | -1.30026 | 36.48361 | 13532 ft | 334 kts | 121° |
| 2026-04-30 22:54 | -1.32452 | 36.52245 | 12687 ft | 321 kts | 121° |
| 2026-04-30 22:55 | -1.35885 | 36.57743 | 11568 ft | 304 kts | 121° |
| 2026-04-30 22:55 | -1.38124 | 36.61332 | 10754 ft | 305 kts | 120° |
| 2026-04-30 22:56 | -1.40041 | 36.65055 | 10047 ft | 298 kts | 107° |
| 2026-04-30 22:56 | -1.41800 | 36.70906 | 8991 ft | 291 kts | 106° |
| 2026-04-30 22:57 | -1.42925 | 36.74658 | 8305 ft | 274 kts | 104° |
| 2026-04-30 22:57 | -1.42362 | 36.78204 | 7924 ft | 254 kts | 61° |
| 2026-04-30 22:58 | -1.40575 | 36.81001 | 7828 ft | 227 kts | 56° |
| 2026-04-30 22:59 | -1.38075 | 36.84446 | 7021 ft | 189 kts | 54° |
| 2026-04-30 22:59 | -1.35964 | 36.87311 | 6349 ft | 159 kts | 55° |